sensor_id;sensor_type;location;lat;lon;timestamp;temperature;humidity
1083;DHT22;530;51.448;7.238;2022-11-20T00:00:44;4.60;99.90
1083;DHT22;530;51.448;7.238;2022-11-20T00:03:10;5.00;99.90
1083;DHT22;530;51.448;7.238;2022-11-20T00:05:35;4.90;99.90
1083;DHT22;530;51.448;7.238;2022-11-20T00:08:01;4.70;99.90
1083;DHT22;530;51.448;7.238;2022-11-20T00:10:26;4.40;99.90
1083;DHT22;530;51.448;7.238;2022-11-20T00:12:52;4.40;99.90
1083;DHT22;530;51.448;7.238;2022-11-20T00:15:18;4.60;99.90
1083;DHT22;530;51.448;7.238;2022-11-20T00:17:43;4.30;99.90
1083;DHT22;530;51.448;7.238;2022-11-20T00:20:10;4.40;99.90
1083;DHT22;530;51.448;7.238;2022-11-20T00:22:35;4.40;99.90
1083;DHT22;530;51.448;7.238;2022-11-20T00:25:01;4.50;99.90
1083;DHT22;530;51.448;7.238;2022-11-20T00:27:26;4.30;99.90
1083;DHT22;530;51.448;7.238;2022-11-20T00:29:52;4.20;99.90
1083;DHT22;530;51.448;7.238;2022-11-20T00:32:18;4.20;99.90
1083;DHT22;530;51.448;7.238;2022-11-20T00:34:43;4.20;99.90
1083;DHT22;530;51.448;7.238;2022-11-20T00:37:09;4.20;99.90
1083;DHT22;530;51.448;7.238;2022-11-20T00:39:34;4.30;99.90
1083;DHT22;530;51.448;7.238;2022-11-20T00:42:00;4.20;99.90
1083;DHT22;530;51.448;7.238;2022-11-20T00:44:26;4.60;99.90
1083;DHT22;530;51.448;7.238;2022-11-20T00:46:51;4.30;99.90
1083;DHT22;530;51.448;7.238;2022-11-20T00:49:17;4.30;99.90
1083;DHT22;530;51.448;7.238;2022-11-20T00:51:43;4.10;99.90
1083;DHT22;530;51.448;7.238;2022-11-20T00:54:08;4.20;99.90
1083;DHT22;530;51.448;7.238;2022-11-20T00:56:34;4.20;99.90
1083;DHT22;530;51.448;7.238;2022-11-20T00:59:00;4.20;99.90
1083;DHT22;530;51.448;7.238;2022-11-20T01:01:27;4.20;99.90
1083;DHT22;530;51.448;7.238;2022-11-20T01:03:56;4.20;99.90
1083;DHT22;530;51.448;7.238;2022-11-20T01:06:28;4.10;99.90
1083;DHT22;530;51.448;7.238;2022-11-20T01:08:56;4.10;99.90
1083;DHT22;530;51.448;7.238;2022-11-20T01:11:27;4.10;99.90
1083;DHT22;530;51.448;7.238;2022-11-20T01:13:54;4.00;99.90
1083;DHT22;530;51.448;7.238;2022-11-20T01:16:26;4.00;99.90
1083;DHT22;530;51.448;7.238;2022-11-20T01:18:55;3.70;99.90
1083;DHT22;530;51.448;7.238;2022-11-20T01:21:27;3.70;99.90
1083;DHT22;530;51.448;7.238;2022-11-20T01:23:53;3.70;99.90
1083;DHT22;530;51.448;7.238;2022-11-20T01:26:21;3.70;99.90
1083;DHT22;530;51.448;7.238;2022-11-20T01:28:47;3.60;99.90
1083;DHT22;530;51.448;7.238;2022-11-20T01:31:18;3.40;99.90
1083;DHT22;530;51.448;7.238;2022-11-20T01:33:46;3.40;99.90
1083;DHT22;530;51.448;7.238;2022-11-20T01:36:14;3.10;99.90
1083;DHT22;530;51.448;7.238;2022-11-20T01:38:40;3.30;99.90
1083;DHT22;530;51.448;7.238;2022-11-20T01:41:07;3.20;99.90
1083;DHT22;530;51.448;7.238;2022-11-20T01:43:32;3.30;99.90
1083;DHT22;530;51.448;7.238;2022-11-20T01:51:24;2.90;99.90
1083;DHT22;530;51.448;7.238;2022-11-20T01:53:53;3.00;99.90
1083;DHT22;530;51.448;7.238;2022-11-20T01:56:19;3.30;99.90
1083;DHT22;530;51.448;7.238;2022-11-20T01:58:50;3.20;99.90
1083;DHT22;530;51.448;7.238;2022-11-20T02:01:17;3.00;99.90
1083;DHT22;530;51.448;7.238;2022-11-20T02:03:43;2.90;99.90
1083;DHT22;530;51.448;7.238;2022-11-20T02:08:44;3.00;99.90
1083;DHT22;530;51.448;7.238;2022-11-20T02:11:09;3.10;99.90
1083;DHT22;530;51.448;7.238;2022-11-20T02:13:35;2.90;99.90
1083;DHT22;530;51.448;7.238;2022-11-20T02:18:38;2.90;99.90
1083;DHT22;530;51.448;7.238;2022-11-20T02:26:59;3.10;99.90
1083;DHT22;530;51.448;7.238;2022-11-20T02:29:51;2.90;99.90
1083;DHT22;530;51.448;7.238;2022-11-20T02:32:32;2.90;99.90
1083;DHT22;530;51.448;7.238;2022-11-20T02:34:58;2.90;99.90
1083;DHT22;530;51.448;7.238;2022-11-20T02:37:30;2.90;99.90
1083;DHT22;530;51.448;7.238;2022-11-20T02:39:57;2.80;99.90
1083;DHT22;530;51.448;7.238;2022-11-20T02:42:23;2.80;99.90
1083;DHT22;530;51.448;7.238;2022-11-20T02:44:49;3.00;99.90
1083;DHT22;530;51.448;7.238;2022-11-20T02:47:14;3.10;99.90
1083;DHT22;530;51.448;7.238;2022-11-20T02:49:40;3.10;99.90
1083;DHT22;530;51.448;7.238;2022-11-20T02:52:05;2.90;99.90
1083;DHT22;530;51.448;7.238;2022-11-20T02:54:31;3.20;99.90
1083;DHT22;530;51.448;7.238;2022-11-20T02:56:57;2.90;99.90
1083;DHT22;530;51.448;7.238;2022-11-20T02:59:22;3.10;99.90
1083;DHT22;530;51.448;7.238;2022-11-20T03:01:48;2.90;99.90
1083;DHT22;530;51.448;7.238;2022-11-20T03:04:14;3.20;99.90
1083;DHT22;530;51.448;7.238;2022-11-20T03:06:39;3.10;99.90
1083;DHT22;530;51.448;7.238;2022-11-20T03:09:05;3.10;99.90
1083;DHT22;530;51.448;7.238;2022-11-20T03:11:31;3.10;99.90
1083;DHT22;530;51.448;7.238;2022-11-20T03:13:56;3.40;99.90
1083;DHT22;530;51.448;7.238;2022-11-20T03:16:23;3.10;99.90
1083;DHT22;530;51.448;7.238;2022-11-20T03:18:49;3.20;99.90
1083;DHT22;530;51.448;7.238;2022-11-20T03:21:17;3.20;99.90
1083;DHT22;530;51.448;7.238;2022-11-20T03:23:42;3.20;99.90
1083;DHT22;530;51.448;7.238;2022-11-20T03:28:41;3.10;99.90
1083;DHT22;530;51.448;7.238;2022-11-20T03:31:12;3.40;99.90
1083;DHT22;530;51.448;7.238;2022-11-20T03:33:39;3.50;99.90
1083;DHT22;530;51.448;7.238;2022-11-20T03:36:10;3.40;99.90
1083;DHT22;530;51.448;7.238;2022-11-20T03:38:36;3.40;99.90
1083;DHT22;530;51.448;7.238;2022-11-20T03:41:08;3.30;99.90
1083;DHT22;530;51.448;7.238;2022-11-20T03:43:34;3.30;99.90
1083;DHT22;530;51.448;7.238;2022-11-20T03:46:00;3.40;99.90
1083;DHT22;530;51.448;7.238;2022-11-20T03:48:26;3.50;99.90
1083;DHT22;530;51.448;7.238;2022-11-20T03:50:53;3.40;99.90
1083;DHT22;530;51.448;7.238;2022-11-20T03:53:19;3.70;99.90
1083;DHT22;530;51.448;7.238;2022-11-20T03:55:49;3.70;99.90
1083;DHT22;530;51.448;7.238;2022-11-20T03:58:15;3.80;99.90
1083;DHT22;530;51.448;7.238;2022-11-20T04:00:41;3.70;99.90
1083;DHT22;530;51.448;7.238;2022-11-20T04:03:06;3.90;99.90
1083;DHT22;530;51.448;7.238;2022-11-20T04:05:33;3.80;99.90
1083;DHT22;530;51.448;7.238;2022-11-20T04:07:59;3.80;99.90
1083;DHT22;530;51.448;7.238;2022-11-20T04:10:25;3.60;99.90
1083;DHT22;530;51.448;7.238;2022-11-20T04:12:51;3.80;99.90
1083;DHT22;530;51.448;7.238;2022-11-20T04:15:16;3.80;99.90
1083;DHT22;530;51.448;7.238;2022-11-20T04:17:42;3.70;99.90
1083;DHT22;530;51.448;7.238;2022-11-20T04:20:08;3.70;99.90
1083;DHT22;530;51.448;7.238;2022-11-20T04:22:34;3.70;99.90
1083;DHT22;530;51.448;7.238;2022-11-20T04:24:59;3.80;99.90
1083;DHT22;530;51.448;7.238;2022-11-20T04:27:25;3.80;99.90
1083;DHT22;530;51.448;7.238;2022-11-20T04:29:50;3.90;99.90
1083;DHT22;530;51.448;7.238;2022-11-20T04:32:16;4.00;99.90
1083;DHT22;530;51.448;7.238;2022-11-20T04:34:42;3.90;99.90
1083;DHT22;530;51.448;7.238;2022-11-20T04:37:07;3.80;99.90
1083;DHT22;530;51.448;7.238;2022-11-20T04:39:33;3.90;99.90
1083;DHT22;530;51.448;7.238;2022-11-20T04:41:59;4.00;99.90
1083;DHT22;530;51.448;7.238;2022-11-20T04:44:43;4.10;99.90
1083;DHT22;530;51.448;7.238;2022-11-20T04:47:09;3.90;99.90
1083;DHT22;530;51.448;7.238;2022-11-20T04:49:34;4.00;99.90
1083;DHT22;530;51.448;7.238;2022-11-20T04:52:00;3.80;99.90
1083;DHT22;530;51.448;7.238;2022-11-20T04:54:25;3.70;99.90
1083;DHT22;530;51.448;7.238;2022-11-20T04:56:51;3.70;99.90
1083;DHT22;530;51.448;7.238;2022-11-20T04:59:17;3.90;99.90
1083;DHT22;530;51.448;7.238;2022-11-20T05:01:42;3.70;99.90
1083;DHT22;530;51.448;7.238;2022-11-20T05:04:08;3.60;99.90
1083;DHT22;530;51.448;7.238;2022-11-20T05:06:34;3.40;99.90
1083;DHT22;530;51.448;7.238;2022-11-20T05:08:59;3.40;99.90
1083;DHT22;530;51.448;7.238;2022-11-20T05:11:26;3.40;99.90
1083;DHT22;530;51.448;7.238;2022-11-20T05:13:54;3.60;99.90
1083;DHT22;530;51.448;7.238;2022-11-20T05:16:22;3.60;99.90
1083;DHT22;530;51.448;7.238;2022-11-20T05:18:49;3.50;99.90
1083;DHT22;530;51.448;7.238;2022-11-20T05:21:16;3.40;99.90
1083;DHT22;530;51.448;7.238;2022-11-20T05:23:42;3.40;99.90
1083;DHT22;530;51.448;7.238;2022-11-20T05:26:21;3.40;99.90
1083;DHT22;530;51.448;7.238;2022-11-20T05:28:48;3.50;99.90
1083;DHT22;530;51.448;7.238;2022-11-20T05:31:16;3.30;99.90
1083;DHT22;530;51.448;7.238;2022-11-20T05:33:43;3.40;99.90
1083;DHT22;530;51.448;7.238;2022-11-20T05:36:09;3.30;99.90
1083;DHT22;530;51.448;7.238;2022-11-20T05:38:35;3.50;99.90
1083;DHT22;530;51.448;7.238;2022-11-20T05:41:09;3.30;99.90
1083;DHT22;530;51.448;7.238;2022-11-20T05:43:37;3.40;99.90
1083;DHT22;530;51.448;7.238;2022-11-20T05:46:04;3.60;99.90
1083;DHT22;530;51.448;7.238;2022-11-20T05:48:30;3.40;99.90
1083;DHT22;530;51.448;7.238;2022-11-20T05:51:01;3.60;99.90
1083;DHT22;530;51.448;7.238;2022-11-20T05:53:27;3.50;99.90
1083;DHT22;530;51.448;7.238;2022-11-20T05:56:05;3.50;99.90
1083;DHT22;530;51.448;7.238;2022-11-20T05:58:32;3.30;99.90
1083;DHT22;530;51.448;7.238;2022-11-20T06:01:06;3.40;99.90
1083;DHT22;530;51.448;7.238;2022-11-20T06:03:32;3.40;99.90
1083;DHT22;530;51.448;7.238;2022-11-20T06:06:02;3.30;99.90
1083;DHT22;530;51.448;7.238;2022-11-20T06:08:28;3.10;99.90
1083;DHT22;530;51.448;7.238;2022-11-20T06:10:54;3.30;99.90
1083;DHT22;530;51.448;7.238;2022-11-20T06:13:20;3.40;99.90
1083;DHT22;530;51.448;7.238;2022-11-20T06:15:50;3.40;99.90
1083;DHT22;530;51.448;7.238;2022-11-20T06:18:16;3.20;99.90
1083;DHT22;530;51.448;7.238;2022-11-20T06:20:41;3.20;99.90
1083;DHT22;530;51.448;7.238;2022-11-20T06:23:07;3.20;99.90
1083;DHT22;530;51.448;7.238;2022-11-20T06:25:32;3.30;99.90
1083;DHT22;530;51.448;7.238;2022-11-20T06:27:58;3.20;99.90
1083;DHT22;530;51.448;7.238;2022-11-20T06:30:24;3.20;99.90
1083;DHT22;530;51.448;7.238;2022-11-20T06:32:49;3.30;99.90
1083;DHT22;530;51.448;7.238;2022-11-20T06:35:15;3.40;99.90
1083;DHT22;530;51.448;7.238;2022-11-20T06:37:40;3.20;99.90
1083;DHT22;530;51.448;7.238;2022-11-20T06:40:07;3.30;99.90
1083;DHT22;530;51.448;7.238;2022-11-20T06:42:32;3.30;99.90
1083;DHT22;530;51.448;7.238;2022-11-20T06:44:58;3.30;99.90
1083;DHT22;530;51.448;7.238;2022-11-20T06:47:24;3.10;99.90
1083;DHT22;530;51.448;7.238;2022-11-20T06:49:49;3.00;99.90
1083;DHT22;530;51.448;7.238;2022-11-20T06:52:15;2.90;99.90
1083;DHT22;530;51.448;7.238;2022-11-20T06:54:40;3.00;99.90
1083;DHT22;530;51.448;7.238;2022-11-20T06:57:06;3.10;99.90
1083;DHT22;530;51.448;7.238;2022-11-20T06:59:32;2.90;99.90
1083;DHT22;530;51.448;7.238;2022-11-20T07:01:57;2.90;99.90
1083;DHT22;530;51.448;7.238;2022-11-20T07:04:23;3.10;99.90
1083;DHT22;530;51.448;7.238;2022-11-20T07:06:49;3.20;99.90
1083;DHT22;530;51.448;7.238;2022-11-20T07:09:14;3.00;99.90
1083;DHT22;530;51.448;7.238;2022-11-20T07:11:40;2.90;99.90
1083;DHT22;530;51.448;7.238;2022-11-20T07:14:06;2.80;99.90
1083;DHT22;530;51.448;7.238;2022-11-20T07:16:31;2.80;99.90
1083;DHT22;530;51.448;7.238;2022-11-20T07:18:57;2.80;99.90
1083;DHT22;530;51.448;7.238;2022-11-20T07:21:22;2.70;99.90
1083;DHT22;530;51.448;7.238;2022-11-20T07:23:48;2.70;99.90
1083;DHT22;530;51.448;7.238;2022-11-20T07:26:14;2.80;99.90
1083;DHT22;530;51.448;7.238;2022-11-20T07:28:39;2.60;99.90
1083;DHT22;530;51.448;7.238;2022-11-20T07:31:05;2.70;99.90
1083;DHT22;530;51.448;7.238;2022-11-20T07:33:32;2.60;99.90
1083;DHT22;530;51.448;7.238;2022-11-20T07:35:59;2.60;99.90
1083;DHT22;530;51.448;7.238;2022-11-20T07:38:25;2.50;99.90
1083;DHT22;530;51.448;7.238;2022-11-20T07:40:56;2.50;99.90
1083;DHT22;530;51.448;7.238;2022-11-20T07:43:23;2.80;99.90
1083;DHT22;530;51.448;7.238;2022-11-20T07:45:50;2.60;99.90
1083;DHT22;530;51.448;7.238;2022-11-20T07:48:16;2.70;99.90
1083;DHT22;530;51.448;7.238;2022-11-20T07:50:41;2.80;99.90
1083;DHT22;530;51.448;7.238;2022-11-20T07:53:07;2.80;99.90
1083;DHT22;530;51.448;7.238;2022-11-20T07:55:33;2.70;99.90
1083;DHT22;530;51.448;7.238;2022-11-20T07:57:59;2.70;99.90
1083;DHT22;530;51.448;7.238;2022-11-20T08:00:25;2.60;99.90
1083;DHT22;530;51.448;7.238;2022-11-20T08:02:51;2.50;99.90
1083;DHT22;530;51.448;7.238;2022-11-20T08:05:17;2.70;99.90
1083;DHT22;530;51.448;7.238;2022-11-20T08:07:44;2.70;99.90
1083;DHT22;530;51.448;7.238;2022-11-20T08:10:13;2.70;99.90
1083;DHT22;530;51.448;7.238;2022-11-20T08:12:50;2.90;99.90
1083;DHT22;530;51.448;7.238;2022-11-20T08:15:35;2.90;99.90
1083;DHT22;530;51.448;7.238;2022-11-20T08:18:12;3.10;99.90
1083;DHT22;530;51.448;7.238;2022-11-20T08:20:38;3.20;99.90
1083;DHT22;530;51.448;7.238;2022-11-20T08:23:05;3.50;99.90
1083;DHT22;530;51.448;7.238;2022-11-20T08:25:33;3.90;99.90
1083;DHT22;530;51.448;7.238;2022-11-20T08:28:00;4.20;99.90
1083;DHT22;530;51.448;7.238;2022-11-20T08:30:26;4.40;99.90
1083;DHT22;530;51.448;7.238;2022-11-20T08:32:53;4.60;99.90
1083;DHT22;530;51.448;7.238;2022-11-20T08:35:20;5.00;99.90
1083;DHT22;530;51.448;7.238;2022-11-20T08:37:46;5.30;99.90
1083;DHT22;530;51.448;7.238;2022-11-20T08:40:12;5.60;99.90
1083;DHT22;530;51.448;7.238;2022-11-20T08:42:48;5.70;99.90
1083;DHT22;530;51.448;7.238;2022-11-20T08:45:14;5.70;99.90
1083;DHT22;530;51.448;7.238;2022-11-20T08:47:40;5.90;99.90
1083;DHT22;530;51.448;7.238;2022-11-20T08:50:07;6.10;99.90
1083;DHT22;530;51.448;7.238;2022-11-20T08:52:33;6.40;99.90
1083;DHT22;530;51.448;7.238;2022-11-20T08:54:59;6.50;99.90
1083;DHT22;530;51.448;7.238;2022-11-20T08:57:24;6.70;99.90
1083;DHT22;530;51.448;7.238;2022-11-20T08:59:50;6.90;99.90
1083;DHT22;530;51.448;7.238;2022-11-20T09:02:15;7.10;99.90
1083;DHT22;530;51.448;7.238;2022-11-20T09:04:41;7.10;99.90
1083;DHT22;530;51.448;7.238;2022-11-20T09:07:07;7.20;99.90
1083;DHT22;530;51.448;7.238;2022-11-20T09:09:33;7.30;99.90
1083;DHT22;530;51.448;7.238;2022-11-20T09:11:58;7.40;99.90
1083;DHT22;530;51.448;7.238;2022-11-20T09:14:24;7.40;99.90
1083;DHT22;530;51.448;7.238;2022-11-20T09:16:57;7.60;99.90
1083;DHT22;530;51.448;7.238;2022-11-20T09:19:26;7.60;99.90
1083;DHT22;530;51.448;7.238;2022-11-20T09:21:52;7.70;99.90
1083;DHT22;530;51.448;7.238;2022-11-20T09:24:18;7.40;99.90
1083;DHT22;530;51.448;7.238;2022-11-20T09:26:44;7.10;99.90
1083;DHT22;530;51.448;7.238;2022-11-20T09:29:10;7.10;99.90
1083;DHT22;530;51.448;7.238;2022-11-20T09:31:36;7.50;99.90
1083;DHT22;530;51.448;7.238;2022-11-20T09:34:01;7.60;99.90
1083;DHT22;530;51.448;7.238;2022-11-20T09:36:27;7.50;99.90
1083;DHT22;530;51.448;7.238;2022-11-20T09:38:53;7.60;99.90
1083;DHT22;530;51.448;7.238;2022-11-20T09:44:40;7.10;99.90
1083;DHT22;530;51.448;7.238;2022-11-20T09:53:08;6.70;99.90
1083;DHT22;530;51.448;7.238;2022-11-20T09:55:36;6.60;99.90
1083;DHT22;530;51.448;7.238;2022-11-20T09:58:06;6.50;99.90
1083;DHT22;530;51.448;7.238;2022-11-20T10:00:35;6.50;99.90
1083;DHT22;530;51.448;7.238;2022-11-20T10:03:14;6.30;99.90
1083;DHT22;530;51.448;7.238;2022-11-20T10:05:46;6.30;99.90
1083;DHT22;530;51.448;7.238;2022-11-20T10:08:41;6.20;99.90
1083;DHT22;530;51.448;7.238;2022-11-20T10:14:27;6.10;99.90
1083;DHT22;530;51.448;7.238;2022-11-20T10:19:57;5.80;99.90
1083;DHT22;530;51.448;7.238;2022-11-20T10:22:42;6.00;99.90
1083;DHT22;530;51.448;7.238;2022-11-20T10:25:20;6.10;99.90
1083;DHT22;530;51.448;7.238;2022-11-20T10:30:59;6.10;99.90
1083;DHT22;530;51.448;7.238;2022-11-20T10:33:27;5.90;99.90
1083;DHT22;530;51.448;7.238;2022-11-20T10:38:57;6.00;99.90
1083;DHT22;530;51.448;7.238;2022-11-20T10:41:27;6.20;99.90
1083;DHT22;530;51.448;7.238;2022-11-20T10:44:17;6.20;99.90
1083;DHT22;530;51.448;7.238;2022-11-20T10:47:15;6.10;99.90
1083;DHT22;530;51.448;7.238;2022-11-20T10:49:42;6.20;99.90
1083;DHT22;530;51.448;7.238;2022-11-20T10:55:29;6.30;99.90
1083;DHT22;530;51.448;7.238;2022-11-20T11:00:36;6.20;99.90
1083;DHT22;530;51.448;7.238;2022-11-20T11:03:01;6.20;99.90
1083;DHT22;530;51.448;7.238;2022-11-20T11:05:44;6.50;99.90
1083;DHT22;530;51.448;7.238;2022-11-20T11:08:16;6.50;99.90
1083;DHT22;530;51.448;7.238;2022-11-20T11:10:57;6.20;99.90
1083;DHT22;530;51.448;7.238;2022-11-20T11:13:28;6.20;99.90
1083;DHT22;530;51.448;7.238;2022-11-20T11:15:54;6.10;99.90
1083;DHT22;530;51.448;7.238;2022-11-20T11:18:28;6.30;99.90
1083;DHT22;530;51.448;7.238;2022-11-20T11:20:56;6.20;99.90
1083;DHT22;530;51.448;7.238;2022-11-20T11:23:32;6.10;99.90
1083;DHT22;530;51.448;7.238;2022-11-20T11:26:01;6.40;99.90
1083;DHT22;530;51.448;7.238;2022-11-20T11:28:27;6.20;99.90
1083;DHT22;530;51.448;7.238;2022-11-20T11:30:54;6.40;99.90
1083;DHT22;530;51.448;7.238;2022-11-20T11:33:26;6.30;99.90
1083;DHT22;530;51.448;7.238;2022-11-20T11:38:30;6.30;99.90
1083;DHT22;530;51.448;7.238;2022-11-20T11:40:57;6.30;99.90
1083;DHT22;530;51.448;7.238;2022-11-20T11:43:26;6.30;99.90
1083;DHT22;530;51.448;7.238;2022-11-20T11:51:46;6.30;99.90
1083;DHT22;530;51.448;7.238;2022-11-20T11:54:25;6.20;99.90
1083;DHT22;530;51.448;7.238;2022-11-20T11:56:53;6.30;99.90
1083;DHT22;530;51.448;7.238;2022-11-20T11:59:46;6.30;99.90
1083;DHT22;530;51.448;7.238;2022-11-20T12:05:28;6.60;99.90
1083;DHT22;530;51.448;7.238;2022-11-20T12:08:10;6.50;99.90
1083;DHT22;530;51.448;7.238;2022-11-20T12:13:46;6.30;99.90
1083;DHT22;530;51.448;7.238;2022-11-20T12:16:16;6.20;99.90
1083;DHT22;530;51.448;7.238;2022-11-20T12:18:43;6.20;99.90
1083;DHT22;530;51.448;7.238;2022-11-20T12:21:38;6.30;99.90
1083;DHT22;530;51.448;7.238;2022-11-20T12:24:34;6.40;99.90
1083;DHT22;530;51.448;7.238;2022-11-20T12:30:16;6.30;99.90
1083;DHT22;530;51.448;7.238;2022-11-20T12:35:38;6.40;99.90
1083;DHT22;530;51.448;7.238;2022-11-20T12:58:15;6.30;99.90
1083;DHT22;530;51.448;7.238;2022-11-20T13:00:56;6.50;99.90
1083;DHT22;530;51.448;7.238;2022-11-20T13:06:05;6.20;99.90
1083;DHT22;530;51.448;7.238;2022-11-20T13:08:40;6.30;99.90
1083;DHT22;530;51.448;7.238;2022-11-20T13:16:19;5.90;99.90
1083;DHT22;530;51.448;7.238;2022-11-20T13:18:49;6.00;99.90
1083;DHT22;530;51.448;7.238;2022-11-20T13:21:20;6.00;99.90
1083;DHT22;530;51.448;7.238;2022-11-20T13:23:46;6.30;99.90
1083;DHT22;530;51.448;7.238;2022-11-20T13:26:20;6.20;99.90
1083;DHT22;530;51.448;7.238;2022-11-20T13:28:59;6.20;99.90
1083;DHT22;530;51.448;7.238;2022-11-20T13:31:33;6.20;99.90
1083;DHT22;530;51.448;7.238;2022-11-20T13:34:03;6.30;99.90
1083;DHT22;530;51.448;7.238;2022-11-20T13:36:29;6.20;99.90
1083;DHT22;530;51.448;7.238;2022-11-20T13:38:57;6.10;99.90
1083;DHT22;530;51.448;7.238;2022-11-20T13:47:01;6.20;99.90
1083;DHT22;530;51.448;7.238;2022-11-20T13:49:33;6.10;99.90
1083;DHT22;530;51.448;7.238;2022-11-20T13:52:26;6.20;99.90
1083;DHT22;530;51.448;7.238;2022-11-20T14:00:33;6.40;99.90
1083;DHT22;530;51.448;7.238;2022-11-20T14:03:24;6.40;99.90
1083;DHT22;530;51.448;7.238;2022-11-20T14:05:56;6.20;99.90
1083;DHT22;530;51.448;7.238;2022-11-20T14:08:41;6.10;99.90
1083;DHT22;530;51.448;7.238;2022-11-20T14:11:22;6.20;99.90
1083;DHT22;530;51.448;7.238;2022-11-20T14:16:33;6.10;99.90
1083;DHT22;530;51.448;7.238;2022-11-20T14:21:44;6.20;99.90
1083;DHT22;530;51.448;7.238;2022-11-20T14:24:11;6.30;99.90
1083;DHT22;530;51.448;7.238;2022-11-20T14:26:42;6.20;99.90
1083;DHT22;530;51.448;7.238;2022-11-20T14:29:23;6.10;99.90
1083;DHT22;530;51.448;7.238;2022-11-20T14:31:52;6.00;99.90
1083;DHT22;530;51.448;7.238;2022-11-20T14:34:22;6.20;99.90
1083;DHT22;530;51.448;7.238;2022-11-20T14:36:49;6.10;99.90
1083;DHT22;530;51.448;7.238;2022-11-20T14:39:21;6.00;99.90
1083;DHT22;530;51.448;7.238;2022-11-20T14:41:54;6.10;99.90
1083;DHT22;530;51.448;7.238;2022-11-20T14:44:27;6.20;99.90
1083;DHT22;530;51.448;7.238;2022-11-20T14:46:54;5.90;99.90
1083;DHT22;530;51.448;7.238;2022-11-20T14:49:20;6.10;99.90
1083;DHT22;530;51.448;7.238;2022-11-20T14:51:46;6.10;99.90
1083;DHT22;530;51.448;7.238;2022-11-20T14:54:17;5.90;99.90
1083;DHT22;530;51.448;7.238;2022-11-20T14:57:01;6.00;99.90
1083;DHT22;530;51.448;7.238;2022-11-20T14:59:32;6.00;99.90
1083;DHT22;530;51.448;7.238;2022-11-20T15:02:11;6.10;99.90
1083;DHT22;530;51.448;7.238;2022-11-20T15:04:56;6.20;99.90
1083;DHT22;530;51.448;7.238;2022-11-20T15:07:27;6.10;99.90
1083;DHT22;530;51.448;7.238;2022-11-20T15:10:23;6.10;99.90
1083;DHT22;530;51.448;7.238;2022-11-20T15:13:01;6.00;99.90
1083;DHT22;530;51.448;7.238;2022-11-20T15:15:39;5.90;99.90
1083;DHT22;530;51.448;7.238;2022-11-20T15:18:13;5.90;99.90
1083;DHT22;530;51.448;7.238;2022-11-20T15:20:41;5.70;99.90
1083;DHT22;530;51.448;7.238;2022-11-20T15:23:18;5.90;99.90
1083;DHT22;530;51.448;7.238;2022-11-20T15:25:45;5.90;99.90
1083;DHT22;530;51.448;7.238;2022-11-20T15:28:21;6.00;99.90
1083;DHT22;530;51.448;7.238;2022-11-20T15:30:48;6.00;99.90
1083;DHT22;530;51.448;7.238;2022-11-20T15:33:15;5.80;99.90
1083;DHT22;530;51.448;7.238;2022-11-20T15:35:41;5.90;99.90
1083;DHT22;530;51.448;7.238;2022-11-20T15:38:06;5.70;99.90
1083;DHT22;530;51.448;7.238;2022-11-20T15:40:32;5.70;99.90
1083;DHT22;530;51.448;7.238;2022-11-20T15:42:58;5.80;99.90
1083;DHT22;530;51.448;7.238;2022-11-20T15:48:03;6.10;99.90
1083;DHT22;530;51.448;7.238;2022-11-20T15:50:57;6.30;99.90
1083;DHT22;530;51.448;7.238;2022-11-20T15:53:23;6.60;99.90
1083;DHT22;530;51.448;7.238;2022-11-20T15:55:49;7.00;99.90
1083;DHT22;530;51.448;7.238;2022-11-20T15:58:14;7.40;99.90
1083;DHT22;530;51.448;7.238;2022-11-20T16:00:42;7.80;99.90
1083;DHT22;530;51.448;7.238;2022-11-20T16:03:12;8.30;99.90
1083;DHT22;530;51.448;7.238;2022-11-20T16:05:38;8.90;99.90
1083;DHT22;530;51.448;7.238;2022-11-20T16:08:04;9.40;99.90
1083;DHT22;530;51.448;7.238;2022-11-20T16:10:29;9.90;99.90
1083;DHT22;530;51.448;7.238;2022-11-20T16:12:55;10.30;99.90
1083;DHT22;530;51.448;7.238;2022-11-20T16:15:40;10.80;99.90
1083;DHT22;530;51.448;7.238;2022-11-20T16:18:16;11.20;99.90
1083;DHT22;530;51.448;7.238;2022-11-20T16:20:42;11.70;99.90
1083;DHT22;530;51.448;7.238;2022-11-20T16:23:08;11.80;99.90
1083;DHT22;530;51.448;7.238;2022-11-20T16:25:34;12.10;99.90
1083;DHT22;530;51.448;7.238;2022-11-20T16:28:01;12.40;99.90
1083;DHT22;530;51.448;7.238;2022-11-20T16:30:27;12.40;99.90
1083;DHT22;530;51.448;7.238;2022-11-20T16:32:52;12.40;99.90
1083;DHT22;530;51.448;7.238;2022-11-20T16:35:18;12.40;99.90
1083;DHT22;530;51.448;7.238;2022-11-20T16:37:43;12.50;99.90
1083;DHT22;530;51.448;7.238;2022-11-20T16:40:10;12.50;99.90
1083;DHT22;530;51.448;7.238;2022-11-20T16:42:37;12.60;99.90
1083;DHT22;530;51.448;7.238;2022-11-20T16:45:03;12.70;99.90
1083;DHT22;530;51.448;7.238;2022-11-20T16:47:33;12.40;99.90
1083;DHT22;530;51.448;7.238;2022-11-20T16:50:00;12.30;99.90
1083;DHT22;530;51.448;7.238;2022-11-20T16:52:25;12.20;99.90
1083;DHT22;530;51.448;7.238;2022-11-20T16:54:51;12.30;99.90
1083;DHT22;530;51.448;7.238;2022-11-20T16:57:17;12.40;99.90
1083;DHT22;530;51.448;7.238;2022-11-20T16:59:43;12.40;99.90
1083;DHT22;530;51.448;7.238;2022-11-20T17:02:09;12.80;99.90
1083;DHT22;530;51.448;7.238;2022-11-20T17:04:35;12.90;99.90
1083;DHT22;530;51.448;7.238;2022-11-20T17:07:01;13.10;99.90
1083;DHT22;530;51.448;7.238;2022-11-20T17:09:28;13.20;99.90
1083;DHT22;530;51.448;7.238;2022-11-20T17:11:53;13.60;99.90
1083;DHT22;530;51.448;7.238;2022-11-20T17:14:19;13.70;99.90
1083;DHT22;530;51.448;7.238;2022-11-20T17:16:45;14.00;99.90
1083;DHT22;530;51.448;7.238;2022-11-20T17:19:11;13.70;99.80
1083;DHT22;530;51.448;7.238;2022-11-20T17:21:37;14.10;99.80
1083;DHT22;530;51.448;7.238;2022-11-20T17:24:06;14.20;99.40
1083;DHT22;530;51.448;7.238;2022-11-20T17:26:33;14.30;99.30
1083;DHT22;530;51.448;7.238;2022-11-20T17:29:17;14.70;98.90
1083;DHT22;530;51.448;7.238;2022-11-20T17:31:44;14.80;98.60
1083;DHT22;530;51.448;7.238;2022-11-20T17:34:11;15.00;98.30
1083;DHT22;530;51.448;7.238;2022-11-20T17:36:38;15.20;98.00
1083;DHT22;530;51.448;7.238;2022-11-20T17:39:10;15.10;98.20
1083;DHT22;530;51.448;7.238;2022-11-20T17:41:36;15.30;97.80
1083;DHT22;530;51.448;7.238;2022-11-20T17:44:02;15.40;97.50
1083;DHT22;530;51.448;7.238;2022-11-20T17:46:30;15.50;97.50
1083;DHT22;530;51.448;7.238;2022-11-20T17:48:58;15.20;97.50
1083;DHT22;530;51.448;7.238;2022-11-20T17:51:27;15.20;97.80
1083;DHT22;530;51.448;7.238;2022-11-20T17:53:56;15.10;97.80
1083;DHT22;530;51.448;7.238;2022-11-20T17:56:22;15.00;97.80
1083;DHT22;530;51.448;7.238;2022-11-20T17:59:17;14.90;98.00
1083;DHT22;530;51.448;7.238;2022-11-20T18:01:43;14.80;98.30
1083;DHT22;530;51.448;7.238;2022-11-20T18:04:09;14.80;98.50
1083;DHT22;530;51.448;7.238;2022-11-20T18:06:35;14.40;99.20
1083;DHT22;530;51.448;7.238;2022-11-20T18:09:02;14.40;99.10
1083;DHT22;530;51.448;7.238;2022-11-20T18:11:31;14.20;99.30
1083;DHT22;530;51.448;7.238;2022-11-20T18:14:01;14.10;99.50
1083;DHT22;530;51.448;7.238;2022-11-20T18:16:49;13.90;99.70
1083;DHT22;530;51.448;7.238;2022-11-20T18:19:17;13.70;99.90
1083;DHT22;530;51.448;7.238;2022-11-20T18:21:43;13.50;99.90
1083;DHT22;530;51.448;7.238;2022-11-20T18:24:09;13.40;99.90
1083;DHT22;530;51.448;7.238;2022-11-20T18:26:35;13.20;99.90
1083;DHT22;530;51.448;7.238;2022-11-20T18:29:01;13.00;99.90
1083;DHT22;530;51.448;7.238;2022-11-20T18:31:28;12.80;99.90
1083;DHT22;530;51.448;7.238;2022-11-20T18:33:53;12.60;99.90
1083;DHT22;530;51.448;7.238;2022-11-20T18:36:23;12.40;99.90